sensor_id;sensor_type;location;lat;lon;timestamp;P1;durP1;ratioP1;P2;durP2;ratioP2
33864;SDS011;20159;51.072;13.526;2022-08-21T00:00:36;25.42;;;19.70;;
33864;SDS011;20159;51.072;13.526;2022-08-21T00:03:04;27.58;;;20.70;;
33864;SDS011;20159;51.072;13.526;2022-08-21T00:05:32;26.15;;;20.42;;
33864;SDS011;20159;51.072;13.526;2022-08-21T00:08:01;27.52;;;20.30;;
33864;SDS011;20159;51.072;13.526;2022-08-21T00:10:26;25.00;;;20.83;;
33864;SDS011;20159;51.072;13.526;2022-08-21T00:12:52;26.33;;;20.08;;
33864;SDS011;20159;51.072;13.526;2022-08-21T00:15:21;27.05;;;20.83;;
33864;SDS011;20159;51.072;13.526;2022-08-21T00:17:51;29.30;;;21.80;;
33864;SDS011;20159;51.072;13.526;2022-08-21T00:20:17;28.10;;;21.42;;
33864;SDS011;20159;51.072;13.526;2022-08-21T00:22:43;28.02;;;21.50;;
33864;SDS011;20159;51.072;13.526;2022-08-21T00:25:09;27.85;;;21.75;;
33864;SDS011;20159;51.072;13.526;2022-08-21T00:27:36;29.33;;;21.60;;
33864;SDS011;20159;51.072;13.526;2022-08-21T00:30:02;27.98;;;21.67;;
33864;SDS011;20159;51.072;13.526;2022-08-21T00:32:30;25.65;;;20.45;;
33864;SDS011;20159;51.072;13.526;2022-08-21T00:34:55;28.90;;;21.50;;
33864;SDS011;20159;51.072;13.526;2022-08-21T00:37:21;28.67;;;21.17;;
33864;SDS011;20159;51.072;13.526;2022-08-21T00:39:47;29.55;;;22.40;;
33864;SDS011;20159;51.072;13.526;2022-08-21T00:42:13;28.88;;;22.30;;
33864;SDS011;20159;51.072;13.526;2022-08-21T00:44:40;28.02;;;21.80;;
33864;SDS011;20159;51.072;13.526;2022-08-21T00:47:10;27.10;;;21.77;;
33864;SDS011;20159;51.072;13.526;2022-08-21T00:49:36;29.95;;;21.77;;
33864;SDS011;20159;51.072;13.526;2022-08-21T00:52:02;30.25;;;22.95;;
33864;SDS011;20159;51.072;13.526;2022-08-21T00:54:30;31.02;;;22.15;;
33864;SDS011;20159;51.072;13.526;2022-08-21T00:56:58;28.38;;;20.77;;
33864;SDS011;20159;51.072;13.526;2022-08-21T00:59:26;30.98;;;23.08;;
33864;SDS011;20159;51.072;13.526;2022-08-21T01:01:55;29.63;;;23.05;;
33864;SDS011;20159;51.072;13.526;2022-08-21T01:04:21;31.05;;;23.10;;
33864;SDS011;20159;51.072;13.526;2022-08-21T01:06:47;30.23;;;22.23;;
33864;SDS011;20159;51.072;13.526;2022-08-21T01:09:13;31.00;;;22.10;;
33864;SDS011;20159;51.072;13.526;2022-08-21T01:11:39;29.27;;;22.60;;
33864;SDS011;20159;51.072;13.526;2022-08-21T01:14:07;29.80;;;21.42;;
33864;SDS011;20159;51.072;13.526;2022-08-21T01:16:35;30.05;;;22.73;;
33864;SDS011;20159;51.072;13.526;2022-08-21T01:19:00;29.13;;;21.75;;
33864;SDS011;20159;51.072;13.526;2022-08-21T01:21:26;27.13;;;20.88;;
33864;SDS011;20159;51.072;13.526;2022-08-21T01:23:54;30.02;;;21.88;;
33864;SDS011;20159;51.072;13.526;2022-08-21T01:26:22;28.55;;;21.38;;
33864;SDS011;20159;51.072;13.526;2022-08-21T01:31:53;30.63;;;19.63;;
33864;SDS011;20159;51.072;13.526;2022-08-21T01:34:19;28.45;;;17.45;;
33864;SDS011;20159;51.072;13.526;2022-08-21T01:36:45;18.17;;;15.57;;
33864;SDS011;20159;51.072;13.526;2022-08-21T01:39:11;21.60;;;16.33;;
33864;SDS011;20159;51.072;13.526;2022-08-21T01:41:37;17.98;;;15.40;;
33864;SDS011;20159;51.072;13.526;2022-08-21T01:44:03;21.00;;;15.57;;
33864;SDS011;20159;51.072;13.526;2022-08-21T01:46:28;19.63;;;15.00;;
33864;SDS011;20159;51.072;13.526;2022-08-21T01:48:54;21.20;;;15.55;;
33864;SDS011;20159;51.072;13.526;2022-08-21T01:51:20;25.35;;;15.63;;
33864;SDS011;20159;51.072;13.526;2022-08-21T01:53:45;22.45;;;17.50;;
33864;SDS011;20159;51.072;13.526;2022-08-21T01:56:12;27.75;;;16.58;;
33864;SDS011;20159;51.072;13.526;2022-08-21T01:58:39;23.13;;;18.20;;
33864;SDS011;20159;51.072;13.526;2022-08-21T02:01:06;27.67;;;19.52;;
33864;SDS011;20159;51.072;13.526;2022-08-21T02:03:31;39.05;;;20.33;;
33864;SDS011;20159;51.072;13.526;2022-08-21T02:05:57;25.88;;;18.60;;
33864;SDS011;20159;51.072;13.526;2022-08-21T02:08:22;25.40;;;18.20;;
33864;SDS011;20159;51.072;13.526;2022-08-21T02:10:48;36.47;;;18.92;;
33864;SDS011;20159;51.072;13.526;2022-08-21T02:13:15;20.83;;;16.95;;
33864;SDS011;20159;51.072;13.526;2022-08-21T02:15:41;27.35;;;18.08;;
33864;SDS011;20159;51.072;13.526;2022-08-21T02:18:07;24.63;;;17.00;;
33864;SDS011;20159;51.072;13.526;2022-08-21T02:20:34;24.67;;;16.58;;
33864;SDS011;20159;51.072;13.526;2022-08-21T02:23:06;26.27;;;17.10;;
33864;SDS011;20159;51.072;13.526;2022-08-21T02:25:34;24.17;;;16.55;;
33864;SDS011;20159;51.072;13.526;2022-08-21T02:28:02;22.13;;;16.80;;
33864;SDS011;20159;51.072;13.526;2022-08-21T02:30:31;35.08;;;18.23;;
33864;SDS011;20159;51.072;13.526;2022-08-21T02:32:58;23.08;;;17.52;;
33864;SDS011;20159;51.072;13.526;2022-08-21T02:35:25;26.90;;;17.45;;
33864;SDS011;20159;51.072;13.526;2022-08-21T02:37:55;22.42;;;17.67;;
33864;SDS011;20159;51.072;13.526;2022-08-21T02:40:23;24.73;;;18.15;;
33864;SDS011;20159;51.072;13.526;2022-08-21T02:42:51;24.88;;;19.15;;
33864;SDS011;20159;51.072;13.526;2022-08-21T02:45:18;23.73;;;18.30;;
33864;SDS011;20159;51.072;13.526;2022-08-21T02:47:48;25.02;;;17.75;;
33864;SDS011;20159;51.072;13.526;2022-08-21T02:50:17;23.10;;;17.33;;
33864;SDS011;20159;51.072;13.526;2022-08-21T02:52:45;23.63;;;18.35;;
33864;SDS011;20159;51.072;13.526;2022-08-21T02:55:11;25.73;;;18.73;;
33864;SDS011;20159;51.072;13.526;2022-08-21T02:57:37;27.65;;;17.65;;
33864;SDS011;20159;51.072;13.526;2022-08-21T03:00:03;24.25;;;18.30;;
33864;SDS011;20159;51.072;13.526;2022-08-21T03:02:30;26.85;;;18.80;;
33864;SDS011;20159;51.072;13.526;2022-08-21T03:04:55;23.98;;;17.83;;
33864;SDS011;20159;51.072;13.526;2022-08-21T03:07:21;23.73;;;18.60;;
33864;SDS011;20159;51.072;13.526;2022-08-21T03:09:47;28.40;;;21.60;;
33864;SDS011;20159;51.072;13.526;2022-08-21T03:12:12;26.88;;;20.17;;
33864;SDS011;20159;51.072;13.526;2022-08-21T03:14:38;26.05;;;19.30;;
33864;SDS011;20159;51.072;13.526;2022-08-21T03:17:04;32.00;;;21.92;;
33864;SDS011;20159;51.072;13.526;2022-08-21T03:19:30;36.17;;;23.02;;
33864;SDS011;20159;51.072;13.526;2022-08-21T03:21:55;29.23;;;21.45;;
33864;SDS011;20159;51.072;13.526;2022-08-21T03:24:20;28.50;;;21.95;;
33864;SDS011;20159;51.072;13.526;2022-08-21T03:26:46;33.33;;;23.00;;
33864;SDS011;20159;51.072;13.526;2022-08-21T03:29:11;31.83;;;22.23;;
33864;SDS011;20159;51.072;13.526;2022-08-21T03:31:37;34.83;;;20.70;;
33864;SDS011;20159;51.072;13.526;2022-08-21T03:34:03;29.58;;;22.58;;
33864;SDS011;20159;51.072;13.526;2022-08-21T03:36:28;31.67;;;22.70;;
33864;SDS011;20159;51.072;13.526;2022-08-21T03:38:54;32.15;;;22.27;;
33864;SDS011;20159;51.072;13.526;2022-08-21T03:41:19;30.38;;;23.30;;
33864;SDS011;20159;51.072;13.526;2022-08-21T03:43:45;31.17;;;21.63;;
33864;SDS011;20159;51.072;13.526;2022-08-21T03:46:10;29.23;;;21.10;;
33864;SDS011;20159;51.072;13.526;2022-08-21T03:48:38;29.13;;;20.77;;
33864;SDS011;20159;51.072;13.526;2022-08-21T03:51:04;27.08;;;20.15;;
33864;SDS011;20159;51.072;13.526;2022-08-21T03:53:31;26.40;;;20.02;;
33864;SDS011;20159;51.072;13.526;2022-08-21T03:55:57;26.15;;;19.33;;
33864;SDS011;20159;51.072;13.526;2022-08-21T03:58:23;27.70;;;20.10;;
33864;SDS011;20159;51.072;13.526;2022-08-21T04:00:52;25.23;;;18.73;;
33864;SDS011;20159;51.072;13.526;2022-08-21T04:03:20;27.17;;;19.88;;
33864;SDS011;20159;51.072;13.526;2022-08-21T04:05:46;25.85;;;19.27;;
33864;SDS011;20159;51.072;13.526;2022-08-21T04:08:12;26.95;;;18.48;;
33864;SDS011;20159;51.072;13.526;2022-08-21T04:10:39;23.35;;;18.13;;
33864;SDS011;20159;51.072;13.526;2022-08-21T04:13:05;25.20;;;19.52;;
33864;SDS011;20159;51.072;13.526;2022-08-21T04:15:32;25.30;;;19.45;;
33864;SDS011;20159;51.072;13.526;2022-08-21T04:17:58;25.52;;;18.73;;
33864;SDS011;20159;51.072;13.526;2022-08-21T04:20:24;22.50;;;17.90;;
33864;SDS011;20159;51.072;13.526;2022-08-21T04:22:51;27.52;;;18.48;;
33864;SDS011;20159;51.072;13.526;2022-08-21T04:25:18;25.10;;;19.15;;
33864;SDS011;20159;51.072;13.526;2022-08-21T04:27:45;28.98;;;19.10;;
33864;SDS011;20159;51.072;13.526;2022-08-21T04:30:11;25.83;;;18.88;;
33864;SDS011;20159;51.072;13.526;2022-08-21T04:32:38;38.55;;;18.58;;
33864;SDS011;20159;51.072;13.526;2022-08-21T04:35:08;23.42;;;17.92;;
33864;SDS011;20159;51.072;13.526;2022-08-21T04:37:35;24.73;;;18.38;;
33864;SDS011;20159;51.072;13.526;2022-08-21T04:40:01;26.05;;;17.90;;
33864;SDS011;20159;51.072;13.526;2022-08-21T04:42:27;20.20;;;16.77;;
33864;SDS011;20159;51.072;13.526;2022-08-21T04:44:53;22.52;;;18.23;;
33864;SDS011;20159;51.072;13.526;2022-08-21T04:47:20;23.52;;;17.10;;
33864;SDS011;20159;51.072;13.526;2022-08-21T04:49:46;22.88;;;17.27;;
33864;SDS011;20159;51.072;13.526;2022-08-21T04:52:13;19.88;;;16.27;;
33864;SDS011;20159;51.072;13.526;2022-08-21T04:54:41;20.17;;;15.77;;
33864;SDS011;20159;51.072;13.526;2022-08-21T04:57:10;21.63;;;17.10;;
33864;SDS011;20159;51.072;13.526;2022-08-21T04:59:40;19.60;;;14.57;;
33864;SDS011;20159;51.072;13.526;2022-08-21T05:04:39;18.60;;;14.25;;
33864;SDS011;20159;51.072;13.526;2022-08-21T05:07:10;20.17;;;15.43;;
33864;SDS011;20159;51.072;13.526;2022-08-21T05:09:40;22.08;;;17.10;;
33864;SDS011;20159;51.072;13.526;2022-08-21T05:12:06;20.13;;;15.73;;
33864;SDS011;20159;51.072;13.526;2022-08-21T05:14:32;21.02;;;15.77;;
33864;SDS011;20159;51.072;13.526;2022-08-21T05:16:57;25.45;;;17.02;;
33864;SDS011;20159;51.072;13.526;2022-08-21T05:19:23;19.77;;;16.23;;
33864;SDS011;20159;51.072;13.526;2022-08-21T05:21:49;23.00;;;16.33;;
33864;SDS011;20159;51.072;13.526;2022-08-21T05:24:15;20.35;;;16.23;;
33864;SDS011;20159;51.072;13.526;2022-08-21T05:26:41;19.58;;;15.82;;
33864;SDS011;20159;51.072;13.526;2022-08-21T05:29:07;22.17;;;14.80;;
33864;SDS011;20159;51.072;13.526;2022-08-21T05:31:33;16.42;;;13.63;;
33864;SDS011;20159;51.072;13.526;2022-08-21T05:33:58;16.38;;;13.45;;
33864;SDS011;20159;51.072;13.526;2022-08-21T05:36:24;16.85;;;14.35;;
33864;SDS011;20159;51.072;13.526;2022-08-21T05:38:50;22.20;;;14.80;;
33864;SDS011;20159;51.072;13.526;2022-08-21T05:41:15;17.52;;;13.07;;
33864;SDS011;20159;51.072;13.526;2022-08-21T05:43:41;17.52;;;13.95;;
33864;SDS011;20159;51.072;13.526;2022-08-21T05:46:07;17.33;;;13.02;;
33864;SDS011;20159;51.072;13.526;2022-08-21T05:48:33;17.27;;;12.95;;
33864;SDS011;20159;51.072;13.526;2022-08-21T05:51:04;13.10;;;10.80;;
33864;SDS011;20159;51.072;13.526;2022-08-21T05:53:31;16.20;;;11.43;;
33864;SDS011;20159;51.072;13.526;2022-08-21T05:55:57;12.77;;;10.57;;
33864;SDS011;20159;51.072;13.526;2022-08-21T05:58:22;13.45;;;10.65;;
33864;SDS011;20159;51.072;13.526;2022-08-21T06:00:48;12.20;;;10.93;;
33864;SDS011;20159;51.072;13.526;2022-08-21T06:03:19;14.30;;;11.27;;
33864;SDS011;20159;51.072;13.526;2022-08-21T06:05:49;14.50;;;10.20;;
33864;SDS011;20159;51.072;13.526;2022-08-21T06:08:18;11.27;;;9.93;;
33864;SDS011;20159;51.072;13.526;2022-08-21T06:10:45;11.68;;;9.68;;
33864;SDS011;20159;51.072;13.526;2022-08-21T06:13:12;12.43;;;10.30;;
33864;SDS011;20159;51.072;13.526;2022-08-21T06:15:39;11.32;;;10.10;;
33864;SDS011;20159;51.072;13.526;2022-08-21T06:18:04;15.80;;;11.65;;
33864;SDS011;20159;51.072;13.526;2022-08-21T06:20:30;13.85;;;10.98;;
33864;SDS011;20159;51.072;13.526;2022-08-21T06:22:56;11.68;;;10.00;;
33864;SDS011;20159;51.072;13.526;2022-08-21T06:25:22;13.32;;;10.73;;
33864;SDS011;20159;51.072;13.526;2022-08-21T06:27:48;11.90;;;10.50;;
33864;SDS011;20159;51.072;13.526;2022-08-21T06:30:14;14.13;;;10.68;;
33864;SDS011;20159;51.072;13.526;2022-08-21T06:32:39;11.77;;;10.55;;
33864;SDS011;20159;51.072;13.526;2022-08-21T06:35:05;12.95;;;10.88;;
33864;SDS011;20159;51.072;13.526;2022-08-21T06:37:31;11.68;;;10.02;;
33864;SDS011;20159;51.072;13.526;2022-08-21T06:39:56;12.13;;;10.38;;
33864;SDS011;20159;51.072;13.526;2022-08-21T06:42:22;12.15;;;9.55;;
33864;SDS011;20159;51.072;13.526;2022-08-21T06:44:47;10.93;;;9.85;;
33864;SDS011;20159;51.072;13.526;2022-08-21T06:47:13;11.95;;;10.00;;
33864;SDS011;20159;51.072;13.526;2022-08-21T06:49:38;16.70;;;10.68;;
33864;SDS011;20159;51.072;13.526;2022-08-21T06:52:08;17.70;;;11.07;;
33864;SDS011;20159;51.072;13.526;2022-08-21T06:54:34;15.25;;;10.45;;
33864;SDS011;20159;51.072;13.526;2022-08-21T06:57:00;10.93;;;9.55;;
33864;SDS011;20159;51.072;13.526;2022-08-21T06:59:25;10.90;;;9.20;;
33864;SDS011;20159;51.072;13.526;2022-08-21T07:01:51;10.95;;;9.85;;
33864;SDS011;20159;51.072;13.526;2022-08-21T07:04:16;11.65;;;10.20;;
33864;SDS011;20159;51.072;13.526;2022-08-21T07:06:42;11.32;;;10.15;;
33864;SDS011;20159;51.072;13.526;2022-08-21T07:09:07;10.88;;;9.60;;
33864;SDS011;20159;51.072;13.526;2022-08-21T07:11:34;9.60;;;8.23;;
33864;SDS011;20159;51.072;13.526;2022-08-21T07:14:01;9.35;;;8.40;;
33864;SDS011;20159;51.072;13.526;2022-08-21T07:16:27;12.75;;;10.05;;
33864;SDS011;20159;51.072;13.526;2022-08-21T07:18:52;11.02;;;9.90;;
33864;SDS011;20159;51.072;13.526;2022-08-21T07:21:18;11.63;;;10.43;;
33864;SDS011;20159;51.072;13.526;2022-08-21T07:23:44;10.70;;;9.55;;
33864;SDS011;20159;51.072;13.526;2022-08-21T07:26:13;12.00;;;9.52;;
33864;SDS011;20159;51.072;13.526;2022-08-21T07:28:40;11.27;;;9.55;;
33864;SDS011;20159;51.072;13.526;2022-08-21T07:31:06;9.93;;;8.93;;
33864;SDS011;20159;51.072;13.526;2022-08-21T07:33:32;11.98;;;10.02;;
33864;SDS011;20159;51.072;13.526;2022-08-21T07:35:59;12.98;;;9.80;;
33864;SDS011;20159;51.072;13.526;2022-08-21T07:38:25;12.15;;;9.25;;
33864;SDS011;20159;51.072;13.526;2022-08-21T07:40:52;11.50;;;9.30;;
33864;SDS011;20159;51.072;13.526;2022-08-21T07:43:20;14.13;;;10.20;;
33864;SDS011;20159;51.072;13.526;2022-08-21T07:45:46;10.13;;;9.02;;
33864;SDS011;20159;51.072;13.526;2022-08-21T07:48:14;10.65;;;9.30;;
33864;SDS011;20159;51.072;13.526;2022-08-21T07:50:40;11.10;;;9.27;;
33864;SDS011;20159;51.072;13.526;2022-08-21T07:53:07;15.40;;;9.10;;
33864;SDS011;20159;51.072;13.526;2022-08-21T07:55:32;10.15;;;8.50;;
33864;SDS011;20159;51.072;13.526;2022-08-21T07:57:58;10.60;;;8.18;;
33864;SDS011;20159;51.072;13.526;2022-08-21T08:00:24;9.40;;;8.40;;
33864;SDS011;20159;51.072;13.526;2022-08-21T08:02:51;9.23;;;8.10;;
33864;SDS011;20159;51.072;13.526;2022-08-21T08:05:19;12.15;;;8.75;;
33864;SDS011;20159;51.072;13.526;2022-08-21T08:07:47;8.65;;;7.65;;
33864;SDS011;20159;51.072;13.526;2022-08-21T08:10:13;12.02;;;7.68;;
33864;SDS011;20159;51.072;13.526;2022-08-21T08:12:40;8.15;;;7.35;;
33864;SDS011;20159;51.072;13.526;2022-08-21T08:15:07;8.68;;;7.07;;
33864;SDS011;20159;51.072;13.526;2022-08-21T08:17:35;8.10;;;6.80;;
33864;SDS011;20159;51.072;13.526;2022-08-21T08:20:02;10.65;;;7.25;;
33864;SDS011;20159;51.072;13.526;2022-08-21T08:22:28;9.27;;;7.97;;
33864;SDS011;20159;51.072;13.526;2022-08-21T08:24:54;12.63;;;7.45;;
33864;SDS011;20159;51.072;13.526;2022-08-21T08:27:20;9.85;;;7.32;;
33864;SDS011;20159;51.072;13.526;2022-08-21T08:29:46;8.52;;;7.35;;
33864;SDS011;20159;51.072;13.526;2022-08-21T08:32:12;7.93;;;6.30;;
33864;SDS011;20159;51.072;13.526;2022-08-21T08:34:38;7.07;;;6.38;;
33864;SDS011;20159;51.072;13.526;2022-08-21T08:37:04;9.80;;;6.85;;
33864;SDS011;20159;51.072;13.526;2022-08-21T08:39:32;11.52;;;6.90;;
33864;SDS011;20159;51.072;13.526;2022-08-21T08:42:03;8.18;;;7.22;;
33864;SDS011;20159;51.072;13.526;2022-08-21T08:44:37;10.13;;;6.78;;
33864;SDS011;20159;51.072;13.526;2022-08-21T08:47:02;8.07;;;6.95;;
33864;SDS011;20159;51.072;13.526;2022-08-21T08:52:00;7.68;;;6.45;;
33864;SDS011;20159;51.072;13.526;2022-08-21T08:57:09;5.85;;;5.25;;
33864;SDS011;20159;51.072;13.526;2022-08-21T08:59:42;7.53;;;5.70;;
33864;SDS011;20159;51.072;13.526;2022-08-21T09:02:10;6.25;;;5.55;;
33864;SDS011;20159;51.072;13.526;2022-08-21T09:04:37;7.85;;;5.45;;
33864;SDS011;20159;51.072;13.526;2022-08-21T09:07:16;6.53;;;4.82;;
33864;SDS011;20159;51.072;13.526;2022-08-21T09:18:38;6.47;;;4.80;;
33864;SDS011;20159;51.072;13.526;2022-08-21T09:24:01;5.60;;;4.22;;
33864;SDS011;20159;51.072;13.526;2022-08-21T09:29:33;5.60;;;4.03;;
33864;SDS011;20159;51.072;13.526;2022-08-21T09:32:03;4.57;;;3.28;;
33864;SDS011;20159;51.072;13.526;2022-08-21T09:34:36;3.80;;;2.67;;
33864;SDS011;20159;51.072;13.526;2022-08-21T09:37:01;8.45;;;2.85;;
33864;SDS011;20159;51.072;13.526;2022-08-21T09:39:29;6.22;;;3.17;;
33864;SDS011;20159;51.072;13.526;2022-08-21T09:41:57;4.75;;;2.70;;
33864;SDS011;20159;51.072;13.526;2022-08-21T09:44:26;3.95;;;2.53;;
33864;SDS011;20159;51.072;13.526;2022-08-21T09:46:53;3.05;;;2.05;;
33864;SDS011;20159;51.072;13.526;2022-08-21T09:49:29;7.28;;;1.98;;
33864;SDS011;20159;51.072;13.526;2022-08-21T09:51:59;5.38;;;1.95;;
33864;SDS011;20159;51.072;13.526;2022-08-21T09:54:32;3.33;;;1.63;;
33864;SDS011;20159;51.072;13.526;2022-08-21T09:57:13;5.18;;;2.25;;
33864;SDS011;20159;51.072;13.526;2022-08-21T10:02:44;3.97;;;1.42;;
33864;SDS011;20159;51.072;13.526;2022-08-21T10:05:21;3.03;;;1.50;;
33864;SDS011;20159;51.072;13.526;2022-08-21T10:07:48;3.28;;;1.55;;
33864;SDS011;20159;51.072;13.526;2022-08-21T10:18:11;3.05;;;1.58;;
33864;SDS011;20159;51.072;13.526;2022-08-21T10:20:47;4.45;;;1.38;;
33864;SDS011;20159;51.072;13.526;2022-08-21T10:32:22;2.42;;;1.40;;
33864;SDS011;20159;51.072;13.526;2022-08-21T10:35:02;3.75;;;1.75;;
33864;SDS011;20159;51.072;13.526;2022-08-21T10:37:39;4.22;;;1.60;;
33864;SDS011;20159;51.072;13.526;2022-08-21T10:40:49;5.13;;;1.88;;
33864;SDS011;20159;51.072;13.526;2022-08-21T10:43:33;2.70;;;1.20;;
33864;SDS011;20159;51.072;13.526;2022-08-21T10:48:32;3.67;;;1.23;;
33864;SDS011;20159;51.072;13.526;2022-08-21T10:51:15;2.45;;;1.20;;
33864;SDS011;20159;51.072;13.526;2022-08-21T10:56:54;5.90;;;1.58;;
33864;SDS011;20159;51.072;13.526;2022-08-21T11:02:19;5.93;;;1.63;;
33864;SDS011;20159;51.072;13.526;2022-08-21T11:04:56;3.38;;;1.27;;
33864;SDS011;20159;51.072;13.526;2022-08-21T11:07:35;5.97;;;1.55;;
33864;SDS011;20159;51.072;13.526;2022-08-21T11:10:11;18.45;;;10.35;;
33864;SDS011;20159;51.072;13.526;2022-08-21T11:13:06;7.13;;;1.50;;
33864;SDS011;20159;51.072;13.526;2022-08-21T11:16:41;6.72;;;1.80;;
33864;SDS011;20159;51.072;13.526;2022-08-21T11:18:36;7.97;;;1.98;;
33864;SDS011;20159;51.072;13.526;2022-08-21T11:21:25;3.85;;;1.40;;
33864;SDS011;20159;51.072;13.526;2022-08-21T11:23:57;4.25;;;1.40;;
33864;SDS011;20159;51.072;13.526;2022-08-21T11:29:31;3.13;;;1.63;;
33864;SDS011;20159;51.072;13.526;2022-08-21T11:32:27;6.90;;;1.83;;
33864;SDS011;20159;51.072;13.526;2022-08-21T11:43:34;4.40;;;1.77;;
33864;SDS011;20159;51.072;13.526;2022-08-21T11:51:48;6.28;;;1.45;;
33864;SDS011;20159;51.072;13.526;2022-08-21T11:54:25;2.67;;;1.58;;
33864;SDS011;20159;51.072;13.526;2022-08-21T11:56:59;4.47;;;1.40;;
33864;SDS011;20159;51.072;13.526;2022-08-21T12:02:18;4.68;;;1.40;;
33864;SDS011;20159;51.072;13.526;2022-08-21T12:04:49;8.93;;;1.80;;
33864;SDS011;20159;51.072;13.526;2022-08-21T12:07:33;5.45;;;1.60;;
33864;SDS011;20159;51.072;13.526;2022-08-21T12:10:09;3.97;;;1.20;;
33864;SDS011;20159;51.072;13.526;2022-08-21T12:12:40;2.92;;;1.30;;
33864;SDS011;20159;51.072;13.526;2022-08-21T12:17:53;4.23;;;1.10;;
33864;SDS011;20159;51.072;13.526;2022-08-21T12:25:41;3.47;;;1.40;;
33864;SDS011;20159;51.072;13.526;2022-08-21T12:30:37;10.13;;;1.10;;
33864;SDS011;20159;51.072;13.526;2022-08-21T12:33:17;5.03;;;1.30;;
33864;SDS011;20159;51.072;13.526;2022-08-21T12:36:17;2.30;;;1.45;;
33864;SDS011;20159;51.072;13.526;2022-08-21T12:38:48;5.97;;;1.75;;
33864;SDS011;20159;51.072;13.526;2022-08-21T12:41:21;2.83;;;0.93;;
33864;SDS011;20159;51.072;13.526;2022-08-21T12:43:59;3.00;;;1.02;;
33864;SDS011;20159;51.072;13.526;2022-08-21T12:46:32;3.65;;;1.48;;
33864;SDS011;20159;51.072;13.526;2022-08-21T12:49:03;5.50;;;1.30;;
33864;SDS011;20159;51.072;13.526;2022-08-21T12:54:37;3.53;;;1.02;;
33864;SDS011;20159;51.072;13.526;2022-08-21T12:57:07;3.78;;;1.30;;
33864;SDS011;20159;51.072;13.526;2022-08-21T12:59:38;3.05;;;1.00;;
33864;SDS011;20159;51.072;13.526;2022-08-21T13:02:09;4.57;;;1.17;;
33864;SDS011;20159;51.072;13.526;2022-08-21T13:04:43;4.57;;;1.00;;
33864;SDS011;20159;51.072;13.526;2022-08-21T13:07:11;3.92;;;1.00;;
33864;SDS011;20159;51.072;13.526;2022-08-21T13:09:50;9.50;;;1.27;;
33864;SDS011;20159;51.072;13.526;2022-08-21T13:12:19;3.13;;;1.10;;
33864;SDS011;20159;51.072;13.526;2022-08-21T13:14:46;3.97;;;0.90;;
33864;SDS011;20159;51.072;13.526;2022-08-21T13:17:18;2.65;;;1.02;;
33864;SDS011;20159;51.072;13.526;2022-08-21T13:22:26;4.28;;;1.10;;
33864;SDS011;20159;51.072;13.526;2022-08-21T13:24:52;4.43;;;1.17;;
33864;SDS011;20159;51.072;13.526;2022-08-21T13:27:20;2.97;;;0.93;;
33864;SDS011;20159;51.072;13.526;2022-08-21T13:30:28;6.57;;;1.35;;
33864;SDS011;20159;51.072;13.526;2022-08-21T13:32:48;5.28;;;1.33;;
33864;SDS011;20159;51.072;13.526;2022-08-21T13:35:21;2.65;;;0.95;;
33864;SDS011;20159;51.072;13.526;2022-08-21T13:37:50;5.60;;;1.30;;
33864;SDS011;20159;51.072;13.526;2022-08-21T13:40:18;2.50;;;1.20;;
33864;SDS011;20159;51.072;13.526;2022-08-21T13:42:55;4.82;;;1.40;;
33864;SDS011;20159;51.072;13.526;2022-08-21T13:45:26;2.20;;;0.95;;
33864;SDS011;20159;51.072;13.526;2022-08-21T13:47:56;3.38;;;1.23;;
33864;SDS011;20159;51.072;13.526;2022-08-21T13:50:23;4.50;;;1.10;;
33864;SDS011;20159;51.072;13.526;2022-08-21T13:52:57;2.55;;;1.17;;
33864;SDS011;20159;51.072;13.526;2022-08-21T13:55:33;3.85;;;1.27;;
33864;SDS011;20159;51.072;13.526;2022-08-21T13:58:04;2.42;;;0.90;;
33864;SDS011;20159;51.072;13.526;2022-08-21T14:00:31;7.93;;;1.55;;
33864;SDS011;20159;51.072;13.526;2022-08-21T14:03:02;2.72;;;1.20;;
33864;SDS011;20159;51.072;13.526;2022-08-21T14:05:35;3.15;;;0.80;;
33864;SDS011;20159;51.072;13.526;2022-08-21T14:08:10;2.22;;;0.90;;
33864;SDS011;20159;51.072;13.526;2022-08-21T14:10:45;3.70;;;1.00;;
33864;SDS011;20159;51.072;13.526;2022-08-21T14:13:35;1.88;;;0.95;;
33864;SDS011;20159;51.072;13.526;2022-08-21T14:16:10;2.05;;;0.80;;
33864;SDS011;20159;51.072;13.526;2022-08-21T14:18:49;2.97;;;1.05;;
33864;SDS011;20159;51.072;13.526;2022-08-21T14:21:22;3.38;;;1.05;;
33864;SDS011;20159;51.072;13.526;2022-08-21T14:26:50;4.95;;;1.20;;
33864;SDS011;20159;51.072;13.526;2022-08-21T14:29:17;1.73;;;0.73;;
33864;SDS011;20159;51.072;13.526;2022-08-21T14:31:49;4.35;;;1.30;;
33864;SDS011;20159;51.072;13.526;2022-08-21T14:34:17;3.58;;;0.95;;
33864;SDS011;20159;51.072;13.526;2022-08-21T14:36:43;2.75;;;0.90;;
33864;SDS011;20159;51.072;13.526;2022-08-21T14:39:09;3.35;;;1.05;;
33864;SDS011;20159;51.072;13.526;2022-08-21T14:41:35;3.03;;;0.82;;
33864;SDS011;20159;51.072;13.526;2022-08-21T14:44:01;3.17;;;1.30;;
33864;SDS011;20159;51.072;13.526;2022-08-21T14:46:28;5.43;;;1.30;;
33864;SDS011;20159;51.072;13.526;2022-08-21T14:48:55;3.90;;;1.10;;
33864;SDS011;20159;51.072;13.526;2022-08-21T14:51:21;3.95;;;1.17;;
33864;SDS011;20159;51.072;13.526;2022-08-21T14:53:46;1.73;;;0.80;;
33864;SDS011;20159;51.072;13.526;2022-08-21T14:56:12;3.50;;;1.15;;
33864;SDS011;20159;51.072;13.526;2022-08-21T14:58:39;2.28;;;0.82;;
33864;SDS011;20159;51.072;13.526;2022-08-21T15:01:07;2.78;;;1.13;;
33864;SDS011;20159;51.072;13.526;2022-08-21T15:03:35;3.13;;;1.02;;
33864;SDS011;20159;51.072;13.526;2022-08-21T15:06:02;2.58;;;0.80;;
33864;SDS011;20159;51.072;13.526;2022-08-21T15:08:28;3.47;;;1.20;;
33864;SDS011;20159;51.072;13.526;2022-08-21T15:10:54;3.55;;;1.20;;
33864;SDS011;20159;51.072;13.526;2022-08-21T15:13:20;3.17;;;1.30;;
33864;SDS011;20159;51.072;13.526;2022-08-21T15:15:47;3.45;;;1.02;;
33864;SDS011;20159;51.072;13.526;2022-08-21T15:18:15;3.78;;;1.17;;
33864;SDS011;20159;51.072;13.526;2022-08-21T15:20:41;5.82;;;1.55;;
33864;SDS011;20159;51.072;13.526;2022-08-21T15:23:07;6.03;;;1.75;;
33864;SDS011;20159;51.072;13.526;2022-08-21T15:25:33;2.72;;;1.17;;
33864;SDS011;20159;51.072;13.526;2022-08-21T15:28:00;3.70;;;1.20;;
33864;SDS011;20159;51.072;13.526;2022-08-21T15:30:26;2.80;;;0.93;;
33864;SDS011;20159;51.072;13.526;2022-08-21T15:32:53;1.92;;;0.80;;
33864;SDS011;20159;51.072;13.526;2022-08-21T15:35:19;3.05;;;0.98;;
33864;SDS011;20159;51.072;13.526;2022-08-21T15:37:44;3.17;;;0.93;;
33864;SDS011;20159;51.072;13.526;2022-08-21T15:40:10;2.03;;;1.00;;
33864;SDS011;20159;51.072;13.526;2022-08-21T15:42:37;2.22;;;0.80;;
33864;SDS011;20159;51.072;13.526;2022-08-21T15:45:04;1.45;;;1.08;;
33864;SDS011;20159;51.072;13.526;2022-08-21T15:47:31;2.67;;;1.20;;
33864;SDS011;20159;51.072;13.526;2022-08-21T15:49:59;2.25;;;0.93;;
33864;SDS011;20159;51.072;13.526;2022-08-21T15:52:25;3.08;;;1.00;;
33864;SDS011;20159;51.072;13.526;2022-08-21T15:54:51;4.32;;;1.10;;
33864;SDS011;20159;51.072;13.526;2022-08-21T15:57:18;2.72;;;1.05;;
33864;SDS011;20159;51.072;13.526;2022-08-21T15:59:50;2.28;;;1.00;;
33864;SDS011;20159;51.072;13.526;2022-08-21T16:02:22;3.05;;;0.98;;